Latest Weather Observations for Tamworth Airport

IDN60801

Issued at 9:35 am EDT Saturday 29 November 2014 (issued every 30 minutes, with the page automatically refreshed every 10 minutes)

About weather observations | Map of weather stations | Latest weather observations for NSW | Other Formats
Station Details ID: 055325 Name: TAMWORTH AIRPORT AWS Lat: -31.07 Lon: 150.84 Height: 394.9 m
Data from the previous 72 hours. | See also: Recent months at Tamworth Airport
Date/Time
EDT
Temp
°C
App
Temp
°C
Dew
Point
Rel
Hum
%
Delta-T
°C
Wind Press
QNH
hPa
Press
MSL
hPa
Rain
since 9 am
mm
Dir
 
Spd
km/h
Gust
km/h
Spd
kts
Gust
kts
29/09:30am 23.0 22.0 10.4 45 7.0 N 6 11 3 6 1019.9 1018.4 0.0
29/09:00am 22.2 20.7 10.4 47 6.6 ENE 9 13 5 7 1020.1 1018.6 0.0
29/08:30am 21.4 20.2 10.3 49 6.2 E 7 11 4 6 1020.1 1018.6 0.0
29/08:00am 21.1 19.7 10.9 52 5.7 ESE 9 13 5 7 1020.1 1018.6 0.0
29/07:30am 20.2 18.1 11.1 56 5.1 SE 13 15 7 8 1020.1 1018.6 0.0
29/07:00am 17.7 16.5 11.7 68 3.3 SSE 9 13 5 7 1019.9 1018.4 0.0
29/06:30am 16.4 15.1 11.3 72 2.8 S 9 13 5 7 1019.4 1017.8 0.0
29/06:00am 15.1 14.5 10.3 73 2.6 WSW 4 11 2 6 1019.2 1017.6 0.0
29/05:30am 15.6 13.0 10.6 72 2.7 SSE 15 17 8 9 1018.8 1017.2 0.0
29/05:00am 15.7 13.1 10.7 72 2.7 SSE 15 17 8 9 1018.5 1016.9 0.0
29/04:30am 15.8 13.2 10.8 72 2.7 SSE 15 17 8 9 1018.3 1016.7 0.0
29/04:00am 16.2 13.5 10.5 69 3.1 SSE 15 17 8 9 1018.3 1016.7 0.0
29/03:30am 16.7 14.9 10.8 68 3.2 SE 11 13 6 7 1018.2 1016.6 0.0
29/03:00am 16.9 15.4 10.5 66 3.5 SSE 9 13 5 7 1018.3 1016.7 0.0
29/02:30am 17.6 16.0 10.2 62 4.0 SE 9 15 5 8 1018.6 1017.0 0.0
29/02:00am 19.2 17.1 11.0 59 4.5 ESE 13 19 7 10 1018.6 1017.0 0.0
29/01:30am 19.4 16.9 10.9 58 4.7 E 15 20 8 11 1018.9 1017.3 0.0
29/01:00am 19.6 16.2 11.4 59 4.6 ENE 20 24 11 13 1019.2 1017.6 0.0
29/12:30am 19.7 16.3 11.2 58 4.7 ENE 20 28 11 15 1019.5 1017.9 0.0
29/12:00am 19.6 16.4 11.1 58 4.7 E 19 22 10 12 1019.6 1018.0 0.0
 
Date/Time
EDT
Temp
°C
App
Temp
°C
Dew
Point
Rel
Hum
%
Delta-T
°C
Wind Press
QNH
hPa
Press
MSL
hPa
Rain
since 9 am
mm
Dir
 
Spd
km/h
Gust
km/h
Spd
kts
Gust
kts
28/11:30pm 20.1 16.9 11.1 56 5.0 E 19 22 10 12 1019.6 1018.0 0.0
28/11:00pm 20.6 17.1 11.0 54 5.4 E 20 26 11 14 1019.7 1018.2 0.0
28/10:30pm 21.1 17.3 11.2 53 5.6 E 22 28 12 15 1019.6 1018.0 0.0
28/10:00pm 21.4 16.4 11.1 52 5.8 E 28 33 15 18 1019.2 1017.6 0.0
28/09:30pm 21.8 16.9 11.2 51 6.0 E 28 43 15 23 1019.0 1017.4 0.0
28/09:00pm 22.6 18.2 11.7 50 6.2 E 26 30 14 16 1018.2 1016.6 0.0
28/08:30pm 22.8 17.2 11.5 49 6.4 ESE 32 37 17 20 1017.6 1016.1 0.0
28/08:00pm 23.6 17.4 11.3 46 7.0 ESE 35 43 19 23 1017.2 1015.6 0.0
28/07:30pm 24.9 18.6 11.1 42 7.9 SE 35 46 19 25 1016.8 1015.2 0.0
28/07:00pm 26.0 19.2 10.6 38 8.8 SE 37 46 20 25 1016.2 1014.6 0.0
28/06:30pm 26.8 21.0 10.9 37 9.1 SE 32 41 17 22 1016.0 1014.4 0.0
28/06:00pm 27.4 20.7 9.7 33 10.0 SE 35 43 19 23 1015.6 1014.0 0.0
28/05:47pm 27.9 20.9 10.1 33 10.2 SE 37 46 20 25 1015.3 1013.8 0.0
28/05:30pm 29.9 23.7 9.4 28 11.7 SSE 32 41 17 22 1015.2 1013.7 0.0
28/05:24pm 29.6 24.1 9.2 28 11.6 SSE 28 41 15 22 1015.3 1013.8 0.0
28/05:00pm 31.2 28.1 5.6 20 13.8 SW 11 19 6 10 1015.3 1013.8 0.0
28/04:30pm 30.4 25.3 4.2 19 13.7 SSE 20 26 11 14 1015.6 1014.0 0.0
28/04:00pm 30.6 27.4 2.8 17 14.2 W 9 15 5 8 1015.9 1014.3 0.0
28/03:30pm 31.1 27.7 4.0 18 14.2 W 11 17 6 9 1016.3 1014.7 0.0
28/03:00pm 30.1 26.3 4.0 19 13.6 S 13 22 7 12 1016.7 1015.1 0.0
28/02:30pm 30.2 27.1 5.5 21 13.2 S 11 19 6 10 1017.1 1015.5 0.0
28/02:00pm 29.4 26.8 6.1 23 12.5 ENE 9 20 5 11 1017.6 1016.1 0.0
28/01:30pm 28.1 24.9 6.8 26 11.5 NE 13 20 7 11 1018.0 1016.5 0.0
28/01:00pm 28.4 25.4 7.6 27 11.4 NNE 13 17 7 9 1018.8 1017.2 0.0
28/12:30pm 27.9 25.2 7.2 27 11.2 ENE 11 20 6 11 1019.2 1017.6 0.0
28/12:00pm 28.4 24.9 8.7 29 11.0 E 17 24 9 13 1019.7 1018.2 0.0
28/11:30am 26.7 23.8 8.2 31 10.2 ENE 13 26 7 14 1020.1 1018.6 0.0
28/11:00am 26.8 23.5 9.6 34 9.7 SE 17 26 9 14 1020.4 1018.9 0.0
28/10:30am 25.4 21.5 9.3 36 8.9 E 20 30 11 16 1020.8 1019.2 0.0
28/10:00am 24.7 21.0 10.2 40 8.1 E 20 33 11 18 1021.0 1019.4 0.0
28/09:30am 24.3 20.6 10.2 41 7.9 E 20 30 11 16 1021.0 1019.4 0.0
28/09:00am 23.3 19.7 10.4 44 7.2 ESE 20 28 11 15 1021.1 1019.5 0.0
28/08:30am 22.2 18.5 10.0 46 6.8 E 20 30 11 16 1021.3 1019.7 0.0
28/08:00am 21.1 16.6 10.0 49 6.1 ESE 24 33 13 18 1021.0 1019.4 0.0
28/07:30am 20.3 16.4 9.5 50 5.9 E 20 28 11 15 1020.6 1019.1 0.0
28/07:00am 19.8 16.2 9.7 52 5.5 ESE 19 24 10 13 1020.3 1018.8 0.0
28/06:30am 18.9 15.3 9.9 56 4.9 ESE 19 26 10 14 1020.0 1018.5 0.0
28/06:00am 18.2 15.0 9.8 58 4.5 ESE 17 24 9 13 1020.0 1018.5 0.0
28/05:30am 18.2 13.6 9.8 58 4.5 E 24 35 13 19 1019.7 1018.2 0.0
28/05:00am 18.0 13.5 9.9 59 4.4 ESE 24 33 13 18 1019.4 1017.8 0.0
28/04:30am 18.6 14.1 10.2 58 4.6 E 24 33 13 18 1019.2 1017.6 0.0
28/04:00am 18.1 14.0 10.0 59 4.4 ESE 22 28 12 15 1019.3 1017.7 0.0
28/03:30am 18.3 13.8 10.2 59 4.4 ESE 24 39 13 21 1019.3 1017.7 0.0
28/03:00am 18.3 13.5 10.2 59 4.4 E 26 35 14 19 1019.4 1017.8 0.0
28/02:30am 18.3 13.8 9.9 58 4.5 E 24 35 13 19 1019.5 1017.9 0.0
28/02:00am 18.4 14.7 10.3 59 4.4 E 20 30 11 16 1019.9 1018.4 0.0
28/01:30am 18.8 14.8 10.6 59 4.5 E 22 30 12 16 1020.1 1018.6 0.0
28/01:00am 19.0 15.4 10.6 58 4.6 E 20 24 11 13 1020.2 1018.7 0.0
28/12:30am 19.2 15.2 10.5 57 4.8 E 22 30 12 16 1020.2 1018.7 0.0
28/12:00am 17.9 15.9 10.0 60 4.3 SE 11 17 6 9 1020.5 1019.0 0.0
 
Date/Time
EDT
Temp
°C
App
Temp
°C
Dew
Point
Rel
Hum
%
Delta-T
°C
Wind Press
QNH
hPa
Press
MSL
hPa
Rain
since 9 am
mm
Dir
 
Spd
km/h
Gust
km/h
Spd
kts
Gust
kts
27/11:30pm 19.6 15.2 10.3 55 5.1 E 24 32 13 17 1020.4 1018.9 0.0
27/11:00pm 19.6 15.2 10.3 55 5.1 E 24 32 13 17 1020.3 1018.8 0.0
27/10:30pm 19.9 14.7 10.3 54 5.3 E 28 35 15 19 1020.3 1018.8 0.0
27/10:00pm 20.1 15.1 10.8 55 5.2 E 28 37 15 20 1020.2 1018.7 0.0
27/09:30pm 20.3 15.2 10.7 54 5.3 E 28 41 15 22 1020.1 1018.6 0.0
27/09:00pm 20.5 14.9 10.3 52 5.6 E 30 41 16 22 1019.9 1018.4 0.0
27/08:30pm 20.7 14.8 10.5 52 5.7 ESE 32 39 17 21 1019.4 1017.8 0.0
27/08:00pm 21.3 12.9 11.1 52 5.7 ESE 46 56 25 30 1018.8 1017.2 0.0
27/07:30pm 22.4 15.0 11.2 49 6.3 ESE 41 52 22 28 1018.6 1017.0 0.0
27/07:00pm 23.4 15.9 10.8 45 7.1 ESE 41 54 22 29 1017.9 1016.4 0.0
27/06:30pm 25.0 17.6 11.2 42 7.9 ESE 41 56 22 30 1017.2 1015.6 0.0
27/06:00pm 26.3 18.4 10.9 38 8.8 SE 43 54 23 29 1016.5 1014.9 0.0
27/05:30pm 27.1 19.9 10.7 35 9.4 SE 39 48 21 26 1015.9 1014.3 0.0
27/05:00pm 28.1 21.1 9.9 32 10.4 ESE 37 44 20 24 1015.5 1013.9 0.0
27/04:30pm 29.1 22.7 10.7 32 10.7 SE 35 44 19 24 1015.3 1013.8 0.0
27/04:00pm 29.9 23.7 11.4 32 10.9 ESE 35 41 19 22 1015.3 1013.8 0.0
27/03:30pm 28.8 22.8 10.9 33 10.4 SE 33 46 18 25 1015.3 1013.8 0.0
27/03:11pm 28.6 23.6 10.8 33 10.3 SE 28 46 15 25 1015.3 1013.8 0.0
27/03:00pm 28.9 23.4 10.6 32 10.6 SSE 30 41 16 22 1015.5 1013.9 0.0
27/02:30pm 31.1 27.7 9.3 26 12.5 S 17 35 9 19 1015.5 1013.9 0.0
27/02:00pm 32.2 29.7 6.4 20 14.1 S 9 19 5 10 1015.7 1014.1 0.0
27/01:30pm 30.8 26.7 6.0 21 13.4 WSW 17 19 9 10 1015.9 1014.3 0.0
27/01:00pm 30.3 26.7 6.9 23 12.8 WSW 15 22 8 12 1016.2 1014.6 0.0
27/12:30pm 29.1 26.5 7.6 26 11.8 E 11 17 6 9 1016.6 1015.0 0.0
27/12:00pm 28.5 27.0 10.7 33 10.3 WSW 9 19 5 10 1016.9 1015.3 0.0
27/11:30am 28.5 28.0 12.8 38 9.4 SSW 7 13 4 7 1017.2 1015.6 0.0
27/11:00am 27.8 28.1 13.3 40 8.7 S 4 13 2 7 1017.6 1016.1 0.0
27/10:30am 26.9 25.9 12.2 40 8.6 NNE 9 17 5 9 1017.8 1016.3 0.0
27/10:00am 25.5 25.1 14.0 49 6.9 NNW 9 13 5 7 1018.2 1016.6 0.0
27/09:30am 25.2 25.8 15.2 54 6.1 NW 6 9 3 5 1018.2 1016.6 0.0
27/09:00am 24.4 23.6 15.1 56 5.7 N 13 20 7 11 1018.2 1016.6 0.0
27/08:30am 24.8 24.5 15.4 56 5.8 SE 11 17 6 9 1018.2 1016.6 0.0
27/08:00am 22.7 21.3 14.5 60 4.9 SE 15 19 8 10 1017.8 1016.3 0.0
27/07:30am 20.7 19.8 14.8 69 3.5 SE 13 17 7 9 1017.7 1016.2 0.0
27/07:00am 19.5 17.6 14.1 71 3.2 SE 17 20 9 11 1017.5 1016.0 0.0
27/06:30am 18.0 16.8 14.1 78 2.3 SSE 13 17 7 9 1017.0 1015.4 0.0
27/06:00am 16.3 14.9 9.7 65 3.5 SE 7 9 4 5 1016.7 1015.1 0.0
27/05:30am 16.1 14.0 8.3 60 4.0 E 9 9 5 5 1016.3 1014.7 0.0
27/05:00am 16.7 16.3 8.1 57 4.4 CALM 0 0 0 0 1016.1 1014.5 0.0
27/04:30am 17.4 15.6 8.0 54 4.9 NNW 7 11 4 6 1015.6 1014.0 0.0
27/04:00am 18.0 17.1 9.1 56 4.7 N 4 7 2 4 1015.5 1013.9 0.0
27/03:30am 17.6 17.0 10.5 63 3.9 NE 4 7 2 4 1015.3 1013.8 0.0
27/03:00am 17.8 16.0 9.4 58 4.5 SW 9 13 5 7 1015.1 1013.5 0.0
27/02:30am 18.5 17.0 9.3 55 4.9 WSW 7 11 4 6 1015.1 1013.5 0.0
27/02:00am 20.7 18.9 9.6 49 6.0 N 9 11 5 6 1015.2 1013.7 0.0
27/01:30am 20.5 18.2 9.1 48 6.2 N 11 13 6 7 1015.6 1014.0 0.0
27/01:00am 21.4 20.4 10.9 51 5.9 N 7 11 4 6 1015.7 1014.1 0.0
27/12:30am 21.5 20.4 11.8 54 5.5 NW 9 13 5 7 1015.9 1014.3 0.0
27/12:00am 22.0 20.5 12.0 53 5.7 NNW 11 15 6 8 1016.1 1014.5 0.0
 
Date/Time
EDT
Temp
°C
App
Temp
°C
Dew
Point
Rel
Hum
%
Delta-T
°C
Wind Press
QNH
hPa
Press
MSL
hPa
Rain
since 9 am
mm
Dir
 
Spd
km/h
Gust
km/h
Spd
kts
Gust
kts
26/11:30pm 22.8 20.8 11.5 49 6.4 NNW 13 19 7 10 1016.1 1014.5 0.0
26/11:00pm 23.4 21.7 12.4 50 6.4 W 13 17 7 9 1016.2 1014.6 0.0
26/10:30pm 23.8 21.7 11.2 45 7.2 N 13 15 7 8 1016.0 1014.4 0.0
26/10:00pm 23.4 22.6 11.8 48 6.7 N 7 9 4 5 1015.8 1014.2 0.0
26/09:30pm 24.3 22.8 11.9 45 7.2 N 11 13 6 7 1015.5 1013.9 0.0
26/09:00pm 24.7 23.1 11.6 44 7.5 NNW 11 13 6 7 1015.2 1013.7 0.0
26/08:30pm 25.5 23.4 11.3 41 8.2 NW 13 17 7 9 1014.9 1013.3 0.0
26/08:00pm 26.5 24.0 11.0 38 8.9 NW 15 17 8 9 1014.9 1013.3 0.0
26/07:30pm 28.4 25.2 10.1 32 10.5 NW 17 20 9 11 1014.4 1012.8 0.0
26/07:00pm 30.0 27.0 10.5 30 11.3 WNW 17 26 9 14 1014.2 1012.6 0.0
26/06:30pm 29.6 26.0 9.7 29 11.4 W 19 26 10 14 1014.1 1012.5 0.0
26/06:00pm 30.0 26.1 9.5 28 11.7 WNW 20 30 11 16 1014.0 1012.4 0.0
26/05:30pm 30.2 27.5 10.2 29 11.5 WNW 15 20 8 11 1013.8 1012.2 0.0
26/05:00pm 30.3 26.7 9.8 28 11.8 WNW 19 28 10 15 1014.0 1012.4 0.0
26/04:30pm 30.8 25.7 9.1 26 12.3 W 26 37 14 20 1014.1 1012.5 0.0
26/04:00pm 31.0 26.7 10.9 29 11.8 NW 24 28 13 15 1014.1 1012.5 0.0
26/03:30pm 30.2 26.2 11.7 32 10.9 W 24 33 13 18 1014.4 1012.8 0.0
26/03:00pm 30.9 28.1 13.2 34 10.7 WNW 20 32 11 17 1014.9 1013.3 0.0
26/02:30pm 30.9 28.1 13.2 34 10.7 W 20 32 11 17 1015.2 1013.7 0.0
26/02:00pm 29.1 26.5 13.7 38 9.3 NW 20 30 11 16 1015.7 1014.1 0.0
26/01:30pm 29.7 27.0 13.5 37 9.8 WNW 20 26 11 14 1016.2 1014.6 0.0
26/01:00pm 29.3 27.4 14.3 40 9.2 NNW 17 32 9 17 1016.6 1015.0 0.0
26/12:30pm 28.6 28.7 14.4 41 8.7 NW 7 17 4 9 1017.0 1015.4 0.0
26/12:00pm 27.1 25.6 14.1 44 7.9 NNW 15 24 8 13 1017.4 1015.8 0.0
26/11:30am 26.9 26.8 15.0 48 7.3 NNW 9 15 5 8 1017.7 1016.2 0.0
26/11:00am 26.0 26.5 14.1 47 7.2 W 4 13 2 7 1017.9 1016.4 0.0
26/10:30am 25.3 25.7 13.8 49 6.9 NNE 4 9 2 5 1017.9 1016.4 0.0
26/10:00am 25.2 26.3 14.6 51 6.4 SSE 2 7 1 4 1017.9 1016.4 0.0

Other Formats:

Comma delimited format used in spreadsheet applications
http://www.bom.gov.au/fwo/IDN60801/IDN60801.95762.axf

JavaScript Object Notation format (JSON) in row-major order
http://www.bom.gov.au/fwo/IDN60801/IDN60801.95762.json